Wembley, Canada
Current Conditions -  °F | °C
As of 7:00 AM on Friday 24 Oct 2014 (Local Time) from CYQU Reporting Station
Light Fog Light Fog  
Wind Chill: 25°   Ceiling: Unl
Heat Index: 25°   Visibility: 10mi
Dew Point: 25°   Wind: 2mph
Humidity: 100%   Direction: NA
Pressure: 29.77"   Gusts: NA
Location:  55.15°N, 119.15°W
Report Text: CYQU 241300Z VRB02KT 10SM BCFG SCT210 M04/M04 A2977 RMK CI4 VIS N 5 SLP113
Loading
Personal Weather Stations






























Interactive Weather Map
Tropical Storm Tracking
New forecast layout! Learn more

10-Day Weather Forecast

Advertisements
Track Severe Weather on mobile